sensor_id;sensor_type;location;lat;lon;timestamp;temperature;humidity
12761;DHT22;6444;49.742;6.114;2023-02-28T00:00:19;-0.20;99.90
12761;DHT22;6444;49.742;6.114;2023-02-28T00:02:46;-0.20;99.90
12761;DHT22;6444;49.742;6.114;2023-02-28T00:05:13;0.20;99.90
12761;DHT22;6444;49.742;6.114;2023-02-28T00:07:40;-0.40;99.90
12761;DHT22;6444;49.742;6.114;2023-02-28T00:10:07;-0.50;99.90
12761;DHT22;6444;49.742;6.114;2023-02-28T00:12:33;-0.10;99.90
12761;DHT22;6444;49.742;6.114;2023-02-28T00:15:00;-0.30;99.90
12761;DHT22;6444;49.742;6.114;2023-02-28T00:17:26;-0.10;99.90
12761;DHT22;6444;49.742;6.114;2023-02-28T00:19:53;0.10;99.90
12761;DHT22;6444;49.742;6.114;2023-02-28T00:22:20;0.20;99.90
12761;DHT22;6444;49.742;6.114;2023-02-28T00:24:46;0.10;99.90
12761;DHT22;6444;49.742;6.114;2023-02-28T00:27:14;-0.40;99.90
12761;DHT22;6444;49.742;6.114;2023-02-28T00:29:40;-0.40;99.90
12761;DHT22;6444;49.742;6.114;2023-02-28T00:32:07;-0.10;99.90
12761;DHT22;6444;49.742;6.114;2023-02-28T00:34:34;0.30;99.90
12761;DHT22;6444;49.742;6.114;2023-02-28T00:37:01;0.20;99.90
12761;DHT22;6444;49.742;6.114;2023-02-28T00:39:27;-0.30;99.90
12761;DHT22;6444;49.742;6.114;2023-02-28T00:41:54;-0.30;99.90
12761;DHT22;6444;49.742;6.114;2023-02-28T00:44:21;-0.20;99.90
12761;DHT22;6444;49.742;6.114;2023-02-28T00:46:47;-0.50;99.90
12761;DHT22;6444;49.742;6.114;2023-02-28T00:49:14;-0.40;99.90
12761;DHT22;6444;49.742;6.114;2023-02-28T00:51:40;-0.20;99.90
12761;DHT22;6444;49.742;6.114;2023-02-28T00:54:07;-0.20;99.90
12761;DHT22;6444;49.742;6.114;2023-02-28T00:56:34;-0.20;99.90
12761;DHT22;6444;49.742;6.114;2023-02-28T00:59:00;-0.10;99.90
12761;DHT22;6444;49.742;6.114;2023-02-28T01:01:28;-0.40;99.90
12761;DHT22;6444;49.742;6.114;2023-02-28T01:03:54;-0.50;99.90
12761;DHT22;6444;49.742;6.114;2023-02-28T01:06:21;-0.50;99.90
12761;DHT22;6444;49.742;6.114;2023-02-28T01:08:48;-0.40;99.90
12761;DHT22;6444;49.742;6.114;2023-02-28T01:11:15;-0.30;99.90
12761;DHT22;6444;49.742;6.114;2023-02-28T01:13:41;-0.70;99.90
12761;DHT22;6444;49.742;6.114;2023-02-28T01:16:07;-0.50;99.90
12761;DHT22;6444;49.742;6.114;2023-02-28T01:18:34;-0.40;99.90
12761;DHT22;6444;49.742;6.114;2023-02-28T01:21:07;-0.20;99.90
12761;DHT22;6444;49.742;6.114;2023-02-28T01:23:33;-0.10;99.90
12761;DHT22;6444;49.742;6.114;2023-02-28T01:26:27;-0.70;99.90
12761;DHT22;6444;49.742;6.114;2023-02-28T01:28:32;-0.60;99.90
12761;DHT22;6444;49.742;6.114;2023-02-28T01:30:59;-0.50;99.90
12761;DHT22;6444;49.742;6.114;2023-02-28T01:33:26;-0.60;99.90
12761;DHT22;6444;49.742;6.114;2023-02-28T01:36:00;-0.60;99.90
12761;DHT22;6444;49.742;6.114;2023-02-28T01:38:26;-0.50;99.90
12761;DHT22;6444;49.742;6.114;2023-02-28T01:40:52;-0.60;99.90
12761;DHT22;6444;49.742;6.114;2023-02-28T01:44:06;-0.70;99.90
12761;DHT22;6444;49.742;6.114;2023-02-28T01:45:46;-0.80;99.90
12761;DHT22;6444;49.742;6.114;2023-02-28T01:48:13;-0.70;99.90
12761;DHT22;6444;49.742;6.114;2023-02-28T01:50:40;-0.50;99.90
12761;DHT22;6444;49.742;6.114;2023-02-28T01:53:07;-1.00;99.90
12761;DHT22;6444;49.742;6.114;2023-02-28T01:55:33;-0.80;99.90
12761;DHT22;6444;49.742;6.114;2023-02-28T01:58:00;-0.50;99.90
12761;DHT22;6444;49.742;6.114;2023-02-28T02:00:26;-0.40;99.90
12761;DHT22;6444;49.742;6.114;2023-02-28T02:03:04;-0.20;99.90
12761;DHT22;6444;49.742;6.114;2023-02-28T02:05:28;-0.20;99.90
12761;DHT22;6444;49.742;6.114;2023-02-28T02:07:55;-0.30;99.90
12761;DHT22;6444;49.742;6.114;2023-02-28T02:10:27;-0.40;99.90
12761;DHT22;6444;49.742;6.114;2023-02-28T02:18:01;-0.90;99.90
12761;DHT22;6444;49.742;6.114;2023-02-28T02:20:32;-0.70;99.90
12761;DHT22;6444;49.742;6.114;2023-02-28T02:28:04;-1.10;99.90
12761;DHT22;6444;49.742;6.114;2023-02-28T02:30:44;-0.70;99.90
12761;DHT22;6444;49.742;6.114;2023-02-28T02:33:27;-0.70;99.90
12761;DHT22;6444;49.742;6.114;2023-02-28T02:38:54;-0.60;99.90
12761;DHT22;6444;49.742;6.114;2023-02-28T02:41:33;-1.10;99.90
12761;DHT22;6444;49.742;6.114;2023-02-28T02:44:10;-1.20;99.90
12761;DHT22;6444;49.742;6.114;2023-02-28T02:46:37;-1.00;99.90
12761;DHT22;6444;49.742;6.114;2023-02-28T02:49:02;-0.70;99.90
12761;DHT22;6444;49.742;6.114;2023-02-28T02:51:27;-0.80;99.90
12761;DHT22;6444;49.742;6.114;2023-02-28T02:53:57;-0.50;99.90
12761;DHT22;6444;49.742;6.114;2023-02-28T02:56:24;-0.50;99.90
12761;DHT22;6444;49.742;6.114;2023-02-28T02:58:50;-0.50;99.90
12761;DHT22;6444;49.742;6.114;2023-02-28T03:01:20;-0.30;99.90
12761;DHT22;6444;49.742;6.114;2023-02-28T03:03:46;-0.30;99.90
12761;DHT22;6444;49.742;6.114;2023-02-28T03:06:12;-0.50;99.90
12761;DHT22;6444;49.742;6.114;2023-02-28T03:08:39;-0.50;99.90
12761;DHT22;6444;49.742;6.114;2023-02-28T03:11:06;-0.60;99.90
12761;DHT22;6444;49.742;6.114;2023-02-28T03:13:48;-0.60;99.90
12761;DHT22;6444;49.742;6.114;2023-02-28T03:24:32;-1.00;99.90
12761;DHT22;6444;49.742;6.114;2023-02-28T03:27:07;-0.80;99.90
12761;DHT22;6444;49.742;6.114;2023-02-28T03:29:42;-1.00;99.90
12761;DHT22;6444;49.742;6.114;2023-02-28T03:34:36;-1.10;99.90
12761;DHT22;6444;49.742;6.114;2023-02-28T03:37:07;-1.10;99.90
12761;DHT22;6444;49.742;6.114;2023-02-28T03:39:38;-1.20;99.90
12761;DHT22;6444;49.742;6.114;2023-02-28T03:42:14;-0.80;99.90
12761;DHT22;6444;49.742;6.114;2023-02-28T03:44:42;-1.00;99.90
12761;DHT22;6444;49.742;6.114;2023-02-28T03:47:12;-1.10;99.90
12761;DHT22;6444;49.742;6.114;2023-02-28T03:50:06;-0.80;99.90
12761;DHT22;6444;49.742;6.114;2023-02-28T03:52:10;-0.80;99.90
12761;DHT22;6444;49.742;6.114;2023-02-28T03:54:47;-0.70;99.90
12761;DHT22;6444;49.742;6.114;2023-02-28T03:57:28;-0.80;99.90
12761;DHT22;6444;49.742;6.114;2023-02-28T03:59:59;-1.10;99.90
12761;DHT22;6444;49.742;6.114;2023-02-28T04:02:21;-1.20;99.90
12761;DHT22;6444;49.742;6.114;2023-02-28T04:04:48;-1.10;99.90
12761;DHT22;6444;49.742;6.114;2023-02-28T04:07:14;-1.20;99.90
12761;DHT22;6444;49.742;6.114;2023-02-28T04:09:42;-1.00;99.90
12761;DHT22;6444;49.742;6.114;2023-02-28T04:12:08;-1.10;99.90
12761;DHT22;6444;49.742;6.114;2023-02-28T04:14:35;-1.40;99.90
12761;DHT22;6444;49.742;6.114;2023-02-28T04:17:01;-1.30;99.90
12761;DHT22;6444;49.742;6.114;2023-02-28T04:19:28;-1.10;99.90
12761;DHT22;6444;49.742;6.114;2023-02-28T04:21:55;-1.20;99.90
12761;DHT22;6444;49.742;6.114;2023-02-28T04:24:22;-1.30;99.90
12761;DHT22;6444;49.742;6.114;2023-02-28T04:26:49;-1.00;99.90
12761;DHT22;6444;49.742;6.114;2023-02-28T04:29:19;-1.20;99.90
12761;DHT22;6444;49.742;6.114;2023-02-28T04:31:41;-1.20;99.90
12761;DHT22;6444;49.742;6.114;2023-02-28T04:34:08;-1.30;99.90
12761;DHT22;6444;49.742;6.114;2023-02-28T04:36:35;-1.10;99.90
12761;DHT22;6444;49.742;6.114;2023-02-28T04:39:02;-1.20;99.90
12761;DHT22;6444;49.742;6.114;2023-02-28T04:41:28;-1.00;99.90
12761;DHT22;6444;49.742;6.114;2023-02-28T04:43:56;-1.30;99.90
12761;DHT22;6444;49.742;6.114;2023-02-28T04:46:22;-1.40;99.90
12761;DHT22;6444;49.742;6.114;2023-02-28T04:48:49;-1.40;99.90
12761;DHT22;6444;49.742;6.114;2023-02-28T04:51:17;-1.40;99.90
12761;DHT22;6444;49.742;6.114;2023-02-28T04:53:42;-1.10;99.90
12761;DHT22;6444;49.742;6.114;2023-02-28T04:56:12;-1.20;99.90
12761;DHT22;6444;49.742;6.114;2023-02-28T04:58:38;-1.00;99.90
12761;DHT22;6444;49.742;6.114;2023-02-28T05:01:06;-1.00;99.90
12761;DHT22;6444;49.742;6.114;2023-02-28T05:03:31;-1.00;99.90
12761;DHT22;6444;49.742;6.114;2023-02-28T05:05:59;-1.00;99.90
12761;DHT22;6444;49.742;6.114;2023-02-28T05:08:25;-1.00;99.90
12761;DHT22;6444;49.742;6.114;2023-02-28T05:10:52;-1.10;99.90
12761;DHT22;6444;49.742;6.114;2023-02-28T05:13:19;-1.10;99.90
12761;DHT22;6444;49.742;6.114;2023-02-28T05:15:45;-1.30;99.90
12761;DHT22;6444;49.742;6.114;2023-02-28T05:18:13;-1.10;99.90
12761;DHT22;6444;49.742;6.114;2023-02-28T05:20:39;-1.20;99.90
12761;DHT22;6444;49.742;6.114;2023-02-28T05:23:06;-2.10;99.90
12761;DHT22;6444;49.742;6.114;2023-02-28T05:25:33;-1.90;99.90
12761;DHT22;6444;49.742;6.114;2023-02-28T05:27:59;-1.80;99.90
12761;DHT22;6444;49.742;6.114;2023-02-28T05:30:26;-2.00;99.90
12761;DHT22;6444;49.742;6.114;2023-02-28T05:32:53;-2.10;99.90
12761;DHT22;6444;49.742;6.114;2023-02-28T05:35:20;-2.10;99.90
12761;DHT22;6444;49.742;6.114;2023-02-28T05:37:46;-1.90;99.90
12761;DHT22;6444;49.742;6.114;2023-02-28T05:40:13;-1.50;99.90
12761;DHT22;6444;49.742;6.114;2023-02-28T05:42:40;-1.20;99.90
12761;DHT22;6444;49.742;6.114;2023-02-28T05:45:07;-0.90;99.90
12761;DHT22;6444;49.742;6.114;2023-02-28T05:47:34;-0.90;99.90
12761;DHT22;6444;49.742;6.114;2023-02-28T05:50:00;-0.90;99.90
12761;DHT22;6444;49.742;6.114;2023-02-28T05:52:27;-1.10;99.90
12761;DHT22;6444;49.742;6.114;2023-02-28T05:54:54;-1.00;99.90
12761;DHT22;6444;49.742;6.114;2023-02-28T05:57:21;-1.00;99.90
12761;DHT22;6444;49.742;6.114;2023-02-28T05:59:48;-0.90;99.90
12761;DHT22;6444;49.742;6.114;2023-02-28T06:02:15;-1.00;99.90
12761;DHT22;6444;49.742;6.114;2023-02-28T06:04:42;-0.90;99.90
12761;DHT22;6444;49.742;6.114;2023-02-28T06:07:11;-0.90;99.90
12761;DHT22;6444;49.742;6.114;2023-02-28T06:09:38;-0.70;99.90
12761;DHT22;6444;49.742;6.114;2023-02-28T06:12:05;-0.70;99.90
12761;DHT22;6444;49.742;6.114;2023-02-28T06:14:32;-0.80;99.90
12761;DHT22;6444;49.742;6.114;2023-02-28T06:16:58;-0.80;99.90
12761;DHT22;6444;49.742;6.114;2023-02-28T06:19:25;-1.00;99.90
12761;DHT22;6444;49.742;6.114;2023-02-28T06:21:52;-1.40;99.90
12761;DHT22;6444;49.742;6.114;2023-02-28T06:24:21;-1.20;99.90
12761;DHT22;6444;49.742;6.114;2023-02-28T06:26:48;-1.20;99.90
12761;DHT22;6444;49.742;6.114;2023-02-28T06:29:14;-0.70;99.90
12761;DHT22;6444;49.742;6.114;2023-02-28T06:31:47;-0.90;99.90
12761;DHT22;6444;49.742;6.114;2023-02-28T06:34:13;-0.70;99.90
12761;DHT22;6444;49.742;6.114;2023-02-28T06:36:40;-0.60;99.90
12761;DHT22;6444;49.742;6.114;2023-02-28T06:39:07;-0.50;99.90
12761;DHT22;6444;49.742;6.114;2023-02-28T06:41:33;-0.30;99.90
12761;DHT22;6444;49.742;6.114;2023-02-28T06:44:00;0.00;99.90
12761;DHT22;6444;49.742;6.114;2023-02-28T06:46:26;0.00;99.90
12761;DHT22;6444;49.742;6.114;2023-02-28T06:48:53;0.20;99.90
12761;DHT22;6444;49.742;6.114;2023-02-28T06:51:20;0.30;99.90
12761;DHT22;6444;49.742;6.114;2023-02-28T06:53:46;0.50;99.90
12761;DHT22;6444;49.742;6.114;2023-02-28T06:56:14;0.60;99.90
12761;DHT22;6444;49.742;6.114;2023-02-28T06:58:39;0.30;99.90
12761;DHT22;6444;49.742;6.114;2023-02-28T07:01:06;0.70;99.90
12761;DHT22;6444;49.742;6.114;2023-02-28T07:03:34;1.10;99.90
12761;DHT22;6444;49.742;6.114;2023-02-28T07:05:59;1.00;99.90
12761;DHT22;6444;49.742;6.114;2023-02-28T07:08:26;0.60;99.90
12761;DHT22;6444;49.742;6.114;2023-02-28T07:10:55;0.90;99.90
12761;DHT22;6444;49.742;6.114;2023-02-28T07:13:22;1.00;99.90
12761;DHT22;6444;49.742;6.114;2023-02-28T07:16:00;1.20;99.90
12761;DHT22;6444;49.742;6.114;2023-02-28T07:18:24;1.40;99.90
12761;DHT22;6444;49.742;6.114;2023-02-28T07:20:52;0.50;99.90
12761;DHT22;6444;49.742;6.114;2023-02-28T07:23:18;0.40;99.90
12761;DHT22;6444;49.742;6.114;2023-02-28T07:25:45;0.90;99.90
12761;DHT22;6444;49.742;6.114;2023-02-28T07:28:12;1.20;99.90
12761;DHT22;6444;49.742;6.114;2023-02-28T07:30:39;1.30;99.90
12761;DHT22;6444;49.742;6.114;2023-02-28T07:33:06;1.30;99.90
12761;DHT22;6444;49.742;6.114;2023-02-28T07:35:32;1.30;99.90
12761;DHT22;6444;49.742;6.114;2023-02-28T07:37:59;1.10;99.90
12761;DHT22;6444;49.742;6.114;2023-02-28T07:40:26;0.30;99.90
12761;DHT22;6444;49.742;6.114;2023-02-28T07:42:54;0.80;99.90
12761;DHT22;6444;49.742;6.114;2023-02-28T07:45:20;0.70;99.90
12761;DHT22;6444;49.742;6.114;2023-02-28T07:47:47;1.00;99.90
12761;DHT22;6444;49.742;6.114;2023-02-28T07:50:15;0.10;99.90
12761;DHT22;6444;49.742;6.114;2023-02-28T07:52:40;-0.40;99.90
12761;DHT22;6444;49.742;6.114;2023-02-28T07:55:08;-0.40;99.90
12761;DHT22;6444;49.742;6.114;2023-02-28T07:57:34;0.10;99.90
12761;DHT22;6444;49.742;6.114;2023-02-28T08:00:00;0.70;99.90
12761;DHT22;6444;49.742;6.114;2023-02-28T08:02:27;0.50;99.90
12761;DHT22;6444;49.742;6.114;2023-02-28T08:04:53;0.80;99.90
12761;DHT22;6444;49.742;6.114;2023-02-28T08:07:20;1.30;99.90
12761;DHT22;6444;49.742;6.114;2023-02-28T08:09:47;1.70;99.90
12761;DHT22;6444;49.742;6.114;2023-02-28T08:12:13;1.80;99.90
12761;DHT22;6444;49.742;6.114;2023-02-28T08:14:40;1.30;99.90
12761;DHT22;6444;49.742;6.114;2023-02-28T08:17:07;1.70;99.90
12761;DHT22;6444;49.742;6.114;2023-02-28T08:19:33;2.30;99.90
12761;DHT22;6444;49.742;6.114;2023-02-28T08:22:00;3.70;99.90
12761;DHT22;6444;49.742;6.114;2023-02-28T08:24:26;4.80;99.90
12761;DHT22;6444;49.742;6.114;2023-02-28T08:26:54;5.90;99.70
12761;DHT22;6444;49.742;6.114;2023-02-28T08:29:20;5.50;98.40
12761;DHT22;6444;49.742;6.114;2023-02-28T08:31:46;5.90;99.80
12761;DHT22;6444;49.742;6.114;2023-02-28T08:34:13;6.20;98.00
12761;DHT22;6444;49.742;6.114;2023-02-28T08:36:40;6.30;97.20
12761;DHT22;6444;49.742;6.114;2023-02-28T08:39:06;5.70;99.40
12761;DHT22;6444;49.742;6.114;2023-02-28T08:41:33;6.30;98.10
12761;DHT22;6444;49.742;6.114;2023-02-28T08:43:59;6.20;97.40
12761;DHT22;6444;49.742;6.114;2023-02-28T08:46:26;6.10;97.60
12761;DHT22;6444;49.742;6.114;2023-02-28T08:48:53;7.10;98.00
12761;DHT22;6444;49.742;6.114;2023-02-28T08:51:23;6.40;97.10
12761;DHT22;6444;49.742;6.114;2023-02-28T08:53:51;6.70;95.80
12761;DHT22;6444;49.742;6.114;2023-02-28T08:56:17;6.70;95.80
12761;DHT22;6444;49.742;6.114;2023-02-28T08:58:44;6.60;97.00
12761;DHT22;6444;49.742;6.114;2023-02-28T09:01:14;6.70;96.10
12761;DHT22;6444;49.742;6.114;2023-02-28T09:03:38;7.40;95.40
12761;DHT22;6444;49.742;6.114;2023-02-28T09:06:04;7.30;95.30
12761;DHT22;6444;49.742;6.114;2023-02-28T09:08:31;6.00;95.30
12761;DHT22;6444;49.742;6.114;2023-02-28T09:10:58;5.80;96.10
12761;DHT22;6444;49.742;6.114;2023-02-28T09:13:25;6.80;96.40
12761;DHT22;6444;49.742;6.114;2023-02-28T09:15:51;9.40;94.20
12761;DHT22;6444;49.742;6.114;2023-02-28T09:18:18;8.20;92.60
12761;DHT22;6444;49.742;6.114;2023-02-28T09:20:44;8.20;94.60
12761;DHT22;6444;49.742;6.114;2023-02-28T09:23:12;8.50;91.70
12761;DHT22;6444;49.742;6.114;2023-02-28T09:25:38;7.00;93.70
12761;DHT22;6444;49.742;6.114;2023-02-28T09:28:04;6.00;94.30
12761;DHT22;6444;49.742;6.114;2023-02-28T09:30:31;6.40;94.80
12761;DHT22;6444;49.742;6.114;2023-02-28T09:32:57;7.30;94.10
12761;DHT22;6444;49.742;6.114;2023-02-28T09:35:24;7.20;93.20
12761;DHT22;6444;49.742;6.114;2023-02-28T09:37:51;6.70;94.20
12761;DHT22;6444;49.742;6.114;2023-02-28T09:40:23;5.70;93.80
12761;DHT22;6444;49.742;6.114;2023-02-28T09:42:49;5.60;95.10
12761;DHT22;6444;49.742;6.114;2023-02-28T09:45:35;6.20;94.50
12761;DHT22;6444;49.742;6.114;2023-02-28T09:48:01;7.20;94.20
12761;DHT22;6444;49.742;6.114;2023-02-28T09:50:33;9.20;93.30
12761;DHT22;6444;49.742;6.114;2023-02-28T09:52:58;10.40;89.70
12761;DHT22;6444;49.742;6.114;2023-02-28T09:55:35;10.40;89.10
12761;DHT22;6444;49.742;6.114;2023-02-28T09:58:00;8.90;88.30
12761;DHT22;6444;49.742;6.114;2023-02-28T10:08:17;7.90;87.10
12761;DHT22;6444;49.742;6.114;2023-02-28T10:10:50;8.20;87.00
12761;DHT22;6444;49.742;6.114;2023-02-28T10:16:20;5.90;89.60
12761;DHT22;6444;49.742;6.114;2023-02-28T10:18:53;5.70;90.00
12761;DHT22;6444;49.742;6.114;2023-02-28T10:21:19;5.70;89.20
12761;DHT22;6444;49.742;6.114;2023-02-28T10:23:44;7.70;88.70
12761;DHT22;6444;49.742;6.114;2023-02-28T10:26:12;7.60;88.50
12761;DHT22;6444;49.742;6.114;2023-02-28T10:28:38;8.10;86.70
12761;DHT22;6444;49.742;6.114;2023-02-28T10:31:05;7.20;86.50
12761;DHT22;6444;49.742;6.114;2023-02-28T10:33:32;7.80;87.20
12761;DHT22;6444;49.742;6.114;2023-02-28T10:35:59;7.30;87.60
12761;DHT22;6444;49.742;6.114;2023-02-28T10:38:31;7.30;87.50
12761;DHT22;6444;49.742;6.114;2023-02-28T10:40:52;6.50;88.00
12761;DHT22;6444;49.742;6.114;2023-02-28T10:43:20;6.60;90.20
12761;DHT22;6444;49.742;6.114;2023-02-28T10:46:02;6.60;90.20
12761;DHT22;6444;49.742;6.114;2023-02-28T10:48:32;8.50;87.70
12761;DHT22;6444;49.742;6.114;2023-02-28T10:50:55;7.30;87.70
12761;DHT22;6444;49.742;6.114;2023-02-28T10:56:02;8.00;87.50
12761;DHT22;6444;49.742;6.114;2023-02-28T10:58:30;8.10;87.20
12761;DHT22;6444;49.742;6.114;2023-02-28T11:00:53;7.50;87.60
12761;DHT22;6444;49.742;6.114;2023-02-28T11:03:31;7.00;88.00
12761;DHT22;6444;49.742;6.114;2023-02-28T11:05:56;7.10;88.10
12761;DHT22;6444;49.742;6.114;2023-02-28T11:08:22;7.30;87.80
12761;DHT22;6444;49.742;6.114;2023-02-28T11:10:56;8.10;88.10
12761;DHT22;6444;49.742;6.114;2023-02-28T11:13:24;7.60;88.80
12761;DHT22;6444;49.742;6.114;2023-02-28T11:15:55;7.20;87.70
12761;DHT22;6444;49.742;6.114;2023-02-28T11:18:39;5.60;89.10
12761;DHT22;6444;49.742;6.114;2023-02-28T11:21:03;5.10;90.30
12761;DHT22;6444;49.742;6.114;2023-02-28T11:23:31;5.60;90.90
12761;DHT22;6444;49.742;6.114;2023-02-28T11:25:58;5.60;90.90
12761;DHT22;6444;49.742;6.114;2023-02-28T11:28:29;4.30;92.60
12761;DHT22;6444;49.742;6.114;2023-02-28T11:31:01;4.20;92.60
12761;DHT22;6444;49.742;6.114;2023-02-28T11:33:30;4.80;92.30
12761;DHT22;6444;49.742;6.114;2023-02-28T11:36:00;4.90;92.10
12761;DHT22;6444;49.742;6.114;2023-02-28T11:38:25;5.40;91.80
12761;DHT22;6444;49.742;6.114;2023-02-28T11:46:01;4.80;92.40
12761;DHT22;6444;49.742;6.114;2023-02-28T11:48:45;4.80;92.40
12761;DHT22;6444;49.742;6.114;2023-02-28T11:51:21;4.50;92.80
12761;DHT22;6444;49.742;6.114;2023-02-28T12:01:50;5.20;92.50
12761;DHT22;6444;49.742;6.114;2023-02-28T12:04:30;5.20;92.30
12761;DHT22;6444;49.742;6.114;2023-02-28T12:06:55;5.10;92.10
12761;DHT22;6444;49.742;6.114;2023-02-28T12:11:55;5.20;92.20
12761;DHT22;6444;49.742;6.114;2023-02-28T12:17:32;4.80;92.70
12761;DHT22;6444;49.742;6.114;2023-02-28T12:20:08;5.30;92.80
12761;DHT22;6444;49.742;6.114;2023-02-28T12:28:09;3.60;93.80
12761;DHT22;6444;49.742;6.114;2023-02-28T12:30:35;3.80;94.80
12761;DHT22;6444;49.742;6.114;2023-02-28T12:33:13;5.10;94.30
12761;DHT22;6444;49.742;6.114;2023-02-28T12:35:34;6.20;93.00
12761;DHT22;6444;49.742;6.114;2023-02-28T12:38:09;5.50;92.30
12761;DHT22;6444;49.742;6.114;2023-02-28T12:40:43;5.30;92.50
12761;DHT22;6444;49.742;6.114;2023-02-28T12:43:03;4.90;92.80
12761;DHT22;6444;49.742;6.114;2023-02-28T12:45:27;4.80;92.90
12761;DHT22;6444;49.742;6.114;2023-02-28T12:47:55;4.60;93.30
12761;DHT22;6444;49.742;6.114;2023-02-28T12:50:19;4.30;92.60
12761;DHT22;6444;49.742;6.114;2023-02-28T12:53:02;4.20;93.40
12761;DHT22;6444;49.742;6.114;2023-02-28T13:00:49;4.80;92.70
12761;DHT22;6444;49.742;6.114;2023-02-28T13:10:51;5.10;92.90
12761;DHT22;6444;49.742;6.114;2023-02-28T13:13:19;4.90;92.80
12761;DHT22;6444;49.742;6.114;2023-02-28T13:16:04;4.90;92.80
12761;DHT22;6444;49.742;6.114;2023-02-28T13:18:39;5.00;93.00
12761;DHT22;6444;49.742;6.114;2023-02-28T13:21:27;4.90;92.70
12761;DHT22;6444;49.742;6.114;2023-02-28T13:26:19;4.30;92.70
12761;DHT22;6444;49.742;6.114;2023-02-28T13:31:22;4.40;92.70
12761;DHT22;6444;49.742;6.114;2023-02-28T13:46:28;5.40;91.60
12761;DHT22;6444;49.742;6.114;2023-02-28T13:48:55;5.20;91.70
12761;DHT22;6444;49.742;6.114;2023-02-28T13:51:34;4.60;92.20
12761;DHT22;6444;49.742;6.114;2023-02-28T13:53:57;5.00;92.50
12761;DHT22;6444;49.742;6.114;2023-02-28T13:56:30;5.30;92.70
12761;DHT22;6444;49.742;6.114;2023-02-28T14:04:06;4.60;92.50
12761;DHT22;6444;49.742;6.114;2023-02-28T14:06:28;4.60;93.20
12761;DHT22;6444;49.742;6.114;2023-02-28T14:08:58;5.20;93.10
12761;DHT22;6444;49.742;6.114;2023-02-28T14:11:28;5.50;91.80
12761;DHT22;6444;49.742;6.114;2023-02-28T14:13:53;5.50;92.50
12761;DHT22;6444;49.742;6.114;2023-02-28T14:16:23;5.60;92.00
12761;DHT22;6444;49.742;6.114;2023-02-28T14:18:50;6.10;92.20
12761;DHT22;6444;49.742;6.114;2023-02-28T14:29:30;5.10;92.10
12761;DHT22;6444;49.742;6.114;2023-02-28T14:37:02;5.40;91.80
12761;DHT22;6444;49.742;6.114;2023-02-28T14:39:29;6.00;90.80
12761;DHT22;6444;49.742;6.114;2023-02-28T14:41:56;5.90;90.50
12761;DHT22;6444;49.742;6.114;2023-02-28T14:44:26;5.30;90.60
12761;DHT22;6444;49.742;6.114;2023-02-28T14:46:50;5.20;91.20
12761;DHT22;6444;49.742;6.114;2023-02-28T14:49:26;5.60;91.30
12761;DHT22;6444;49.742;6.114;2023-02-28T14:52:01;6.40;90.80
12761;DHT22;6444;49.742;6.114;2023-02-28T14:54:19;5.90;90.70
12761;DHT22;6444;49.742;6.114;2023-02-28T14:56:47;5.90;91.10
12761;DHT22;6444;49.742;6.114;2023-02-28T14:59:28;5.80;91.00
12761;DHT22;6444;49.742;6.114;2023-02-28T15:02:13;5.60;90.80
12761;DHT22;6444;49.742;6.114;2023-02-28T15:04:25;5.20;91.40
12761;DHT22;6444;49.742;6.114;2023-02-28T15:07:06;5.30;91.50
12761;DHT22;6444;49.742;6.114;2023-02-28T15:09:17;5.50;92.10
12761;DHT22;6444;49.742;6.114;2023-02-28T15:11:45;5.90;91.80
12761;DHT22;6444;49.742;6.114;2023-02-28T15:14:13;5.70;91.20
12761;DHT22;6444;49.742;6.114;2023-02-28T15:16:37;5.70;91.20
12761;DHT22;6444;49.742;6.114;2023-02-28T15:19:25;5.60;91.10
12761;DHT22;6444;49.742;6.114;2023-02-28T15:21:53;5.40;90.80
12761;DHT22;6444;49.742;6.114;2023-02-28T15:24:19;5.30;91.10
12761;DHT22;6444;49.742;6.114;2023-02-28T15:26:47;5.40;91.60
12761;DHT22;6444;49.742;6.114;2023-02-28T15:29:20;5.30;91.00
12761;DHT22;6444;49.742;6.114;2023-02-28T15:31:48;5.20;91.40
12761;DHT22;6444;49.742;6.114;2023-02-28T15:34:22;5.30;92.10
12761;DHT22;6444;49.742;6.114;2023-02-28T15:36:47;5.50;91.50
12761;DHT22;6444;49.742;6.114;2023-02-28T15:39:21;5.30;91.50
12761;DHT22;6444;49.742;6.114;2023-02-28T15:41:46;5.20;91.60
12761;DHT22;6444;49.742;6.114;2023-02-28T15:44:17;5.10;91.60
12761;DHT22;6444;49.742;6.114;2023-02-28T15:46:43;5.40;91.60
12761;DHT22;6444;49.742;6.114;2023-02-28T15:49:19;5.50;91.30
12761;DHT22;6444;49.742;6.114;2023-02-28T15:51:44;5.70;90.90
12761;DHT22;6444;49.742;6.114;2023-02-28T15:54:15;5.70;90.60
12761;DHT22;6444;49.742;6.114;2023-02-28T15:56:47;5.50;91.40
12761;DHT22;6444;49.742;6.114;2023-02-28T15:59:26;4.80;91.40
12761;DHT22;6444;49.742;6.114;2023-02-28T16:04:36;4.90;91.90
12761;DHT22;6444;49.742;6.114;2023-02-28T16:07:03;4.60;91.70
12761;DHT22;6444;49.742;6.114;2023-02-28T16:09:29;4.40;91.70
12761;DHT22;6444;49.742;6.114;2023-02-28T16:11:56;4.40;92.10
12761;DHT22;6444;49.742;6.114;2023-02-28T16:14:26;4.80;91.90
12761;DHT22;6444;49.742;6.114;2023-02-28T16:16:53;5.10;91.30
12761;DHT22;6444;49.742;6.114;2023-02-28T16:19:19;5.10;91.30
12761;DHT22;6444;49.742;6.114;2023-02-28T16:21:46;5.00;91.50
12761;DHT22;6444;49.742;6.114;2023-02-28T16:24:13;4.80;91.80
12761;DHT22;6444;49.742;6.114;2023-02-28T16:26:44;5.00;91.80
12761;DHT22;6444;49.742;6.114;2023-02-28T16:29:06;4.90;91.80
12761;DHT22;6444;49.742;6.114;2023-02-28T16:31:35;4.80;91.90
12761;DHT22;6444;49.742;6.114;2023-02-28T16:34:01;5.30;92.00
12761;DHT22;6444;49.742;6.114;2023-02-28T16:36:29;6.20;91.50
12761;DHT22;6444;49.742;6.114;2023-02-28T16:38:55;6.20;91.50
12761;DHT22;6444;49.742;6.114;2023-02-28T16:41:23;6.40;90.50
12761;DHT22;6444;49.742;6.114;2023-02-28T16:43:51;6.10;90.60
12761;DHT22;6444;49.742;6.114;2023-02-28T16:46:15;5.00;91.40
12761;DHT22;6444;49.742;6.114;2023-02-28T16:48:42;5.20;91.70
12761;DHT22;6444;49.742;6.114;2023-02-28T16:51:12;5.50;91.40
12761;DHT22;6444;49.742;6.114;2023-02-28T16:53:38;5.40;91.40
12761;DHT22;6444;49.742;6.114;2023-02-28T16:56:05;5.70;91.30
12761;DHT22;6444;49.742;6.114;2023-02-28T16:58:31;5.80;90.50
12761;DHT22;6444;49.742;6.114;2023-02-28T17:00:58;5.60;90.80
12761;DHT22;6444;49.742;6.114;2023-02-28T17:03:26;6.00;90.80
12761;DHT22;6444;49.742;6.114;2023-02-28T17:05:51;5.10;90.80
12761;DHT22;6444;49.742;6.114;2023-02-28T17:08:18;4.80;91.80
12761;DHT22;6444;49.742;6.114;2023-02-28T17:10:44;5.20;91.60
12761;DHT22;6444;49.742;6.114;2023-02-28T17:13:11;5.90;91.10
12761;DHT22;6444;49.742;6.114;2023-02-28T17:15:38;6.20;90.60
12761;DHT22;6444;49.742;6.114;2023-02-28T17:18:04;6.40;90.20
12761;DHT22;6444;49.742;6.114;2023-02-28T17:20:31;6.20;90.00
12761;DHT22;6444;49.742;6.114;2023-02-28T17:25:27;6.00;90.50
12761;DHT22;6444;49.742;6.114;2023-02-28T17:27:53;5.90;90.60
12761;DHT22;6444;49.742;6.114;2023-02-28T17:30:21;6.10;90.40
12761;DHT22;6444;49.742;6.114;2023-02-28T17:32:47;6.20;90.20
12761;DHT22;6444;49.742;6.114;2023-02-28T17:35:14;6.20;90.20
12761;DHT22;6444;49.742;6.114;2023-02-28T17:37:41;6.10;90.30
12761;DHT22;6444;49.742;6.114;2023-02-28T17:40:18;6.00;90.50
12761;DHT22;6444;49.742;6.114;2023-02-28T17:42:43;6.10;90.90
12761;DHT22;6444;49.742;6.114;2023-02-28T17:45:10;5.50;91.80
12761;DHT22;6444;49.742;6.114;2023-02-28T17:47:36;4.60;93.00
12761;DHT22;6444;49.742;6.114;2023-02-28T17:50:03;3.90;93.80
12761;DHT22;6444;49.742;6.114;2023-02-28T17:52:30;4.10;94.00
12761;DHT22;6444;49.742;6.114;2023-02-28T17:54:56;4.00;94.20